Time;durP1;ratioP1;P1;durP2;ratioP2;P2;SDS_P1;SDS_P2;PMS_P1;PMS_P2;Temp;Humidity;BMP_temperature;BMP_pressure;BME280_temperature;BME280_humidity;BME280_pressure;Samples;Min_cycle;Max_cycle;Signal;HPM_P1;HPM_P2
2022/07/18 00:00:18;;;;;;;9.95;6.00;;;;;;;;;;4984451;28;20046;-74
2022/07/18 00:02:44;;;;;;;7.20;5.70;;;;;;;;;;4983116;28;20046;-75
2022/07/18 00:05:10;;;;;;;8.30;5.85;;;;;;;;;;4990885;28;20055;-74
2022/07/18 00:07:36;;;;;;;7.53;5.68;;;;;;;;;;4985315;28;20057;-74
2022/07/18 00:10:02;;;;;;;7.25;5.85;;;;;;;;;;4995916;28;20047;-75
2022/07/18 00:12:28;;;;;;;6.18;5.57;;;;;;;;;;4984774;28;20077;-74
2022/07/18 00:14:54;;;;;;;7.15;5.63;;;;;;;;;;4996688;28;20050;-75
2022/07/18 00:17:20;;;;;;;6.57;5.82;;;;;;;;;;4988164;28;20046;-75
2022/07/18 00:19:46;;;;;;;8.10;5.82;;;;;;;;;;4984366;28;20494;-75
2022/07/18 00:22:13;;;;;;;6.30;5.55;;;;;;;;;;4981780;28;20133;-74
2022/07/18 00:24:39;;;;;;;6.85;6.15;;;;;;;;;;4984174;28;20116;-75
2022/07/18 00:27:07;;;;;;;6.55;5.95;;;;;;;;;;4982174;28;20059;-74
2022/07/18 00:29:35;;;;;;;8.82;6.60;;;;;;;;;;4981634;28;20046;-75
2022/07/18 00:32:02;;;;;;;7.70;6.90;;;;;;;;;;4984625;28;20055;-75
2022/07/18 00:34:28;;;;;;;7.10;6.40;;;;;;;;;;4986525;28;20084;-75
2022/07/18 00:36:54;;;;;;;7.70;6.90;;;;;;;;;;4987664;28;20558;-75
2022/07/18 00:39:20;;;;;;;7.82;7.03;;;;;;;;;;4982584;28;20165;-75
2022/07/18 00:41:47;;;;;;;8.65;6.43;;;;;;;;;;4986483;28;20030;-75
2022/07/18 00:44:21;;;;;;;7.43;6.60;;;;;;;;;;4988670;28;20054;-75
2022/07/18 00:46:48;;;;;;;8.75;7.32;;;;;;;;;;4996404;28;20057;-75
2022/07/18 00:49:14;;;;;;;7.55;6.70;;;;;;;;;;4981040;28;20073;-75
2022/07/18 00:51:40;;;;;;;10.80;7.55;;;;;;;;;;4993050;28;20080;-74
2022/07/18 00:54:06;;;;;;;8.07;7.28;;;;;;;;;;5001321;28;20046;-74
2022/07/18 00:56:32;;;;;;;7.60;6.88;;;;;;;;;;4996654;28;20378;-74
2022/07/18 00:58:59;;;;;;;8.45;7.55;;;;;;;;;;4988636;28;20035;-75
2022/07/18 01:01:43;;;;;;;7.75;7.05;;;;;;;;;;4982832;28;20042;-74
2022/07/18 01:04:22;;;;;;;9.05;8.15;;;;;;;;;;4987534;28;20038;-74
2022/07/18 01:06:49;;;;;;;7.78;6.97;;;;;;;;;;4984085;28;20138;-74
2022/07/18 01:09:15;;;;;;;8.27;7.30;;;;;;;;;;4988951;28;20093;-75
2022/07/18 01:11:41;;;;;;;8.57;7.45;;;;;;;;;;4983691;28;20042;-74
2022/07/18 01:14:08;;;;;;;8.20;7.30;;;;;;;;;;4980978;28;20121;-75
2022/07/18 01:16:35;;;;;;;11.07;7.60;;;;;;;;;;4978359;28;20053;-75
2022/07/18 01:19:01;;;;;;;8.65;7.75;;;;;;;;;;4985113;28;20053;-74
2022/07/18 01:21:27;;;;;;;8.10;7.30;;;;;;;;;;4978186;28;20475;-74
2022/07/18 01:23:53;;;;;;;7.82;7.00;;;;;;;;;;4981507;28;20049;-74
2022/07/18 01:26:19;;;;;;;8.88;7.50;;;;;;;;;;4981491;28;20560;-74
2022/07/18 01:28:46;;;;;;;8.27;7.22;;;;;;;;;;4984654;28;20049;-75
2022/07/18 01:31:12;;;;;;;10.70;7.88;;;;;;;;;;4979237;28;20194;-75
2022/07/18 01:33:38;;;;;;;8.75;6.93;;;;;;;;;;4981939;28;20050;-75
2022/07/18 01:36:05;;;;;;;7.35;6.65;;;;;;;;;;4981783;28;20038;-74
2022/07/18 01:38:32;;;;;;;7.93;7.13;;;;;;;;;;4984687;28;20446;-75
2022/07/18 01:40:58;;;;;;;8.48;7.60;;;;;;;;;;4985407;28;20439;-74
2022/07/18 01:43:24;;;;;;;7.78;6.95;;;;;;;;;;4987918;28;20770;-75
2022/07/18 01:45:50;;;;;;;7.97;7.18;;;;;;;;;;4979512;28;20078;-74
2022/07/18 01:48:16;;;;;;;8.32;7.43;;;;;;;;;;4980117;28;20046;-74
2022/07/18 01:50:42;;;;;;;8.45;7.05;;;;;;;;;;4978375;28;20049;-74
2022/07/18 01:53:08;;;;;;;8.20;7.28;;;;;;;;;;4981997;28;20058;-74
2022/07/18 01:55:34;;;;;;;8.65;7.53;;;;;;;;;;4981792;28;20041;-74
2022/07/18 01:58:00;;;;;;;8.23;7.32;;;;;;;;;;4983183;28;20518;-75
2022/07/18 02:00:26;;;;;;;8.25;7.35;;;;;;;;;;4976653;28;20046;-74
2022/07/18 02:02:52;;;;;;;8.52;7.60;;;;;;;;;;4979715;28;20052;-74
2022/07/18 02:05:22;;;;;;;7.97;7.10;;;;;;;;;;4983253;28;20047;-74
2022/07/18 02:07:48;;;;;;;8.38;7.47;;;;;;;;;;4980275;28;20062;-75
2022/07/18 02:10:15;;;;;;;9.27;7.38;;;;;;;;;;4986020;28;20058;-74
2022/07/18 02:12:42;;;;;;;8.20;7.40;;;;;;;;;;4982205;28;20042;-74
2022/07/18 02:15:08;;;;;;;8.52;7.63;;;;;;;;;;4981096;28;20136;-74
2022/07/18 02:17:35;;;;;;;8.38;7.38;;;;;;;;;;4981312;28;20077;-74
2022/07/18 02:20:01;;;;;;;8.32;7.53;;;;;;;;;;4977213;28;20054;-74
2022/07/18 02:22:27;;;;;;;8.05;7.25;;;;;;;;;;4983681;28;20070;-74
2022/07/18 02:24:53;;;;;;;7.85;7.05;;;;;;;;;;4986875;28;20046;-74
2022/07/18 02:27:19;;;;;;;9.45;7.35;;;;;;;;;;4982383;28;20064;-74
2022/07/18 02:29:46;;;;;;;10.57;7.88;;;;;;;;;;4987650;28;20046;-74
2022/07/18 02:32:12;;;;;;;9.60;7.70;;;;;;;;;;4979859;28;20387;-74
2022/07/18 02:34:38;;;;;;;9.73;8.07;;;;;;;;;;4983962;28;20146;-74
2022/07/18 02:37:04;;;;;;;9.27;7.88;;;;;;;;;;4978721;28;20046;-74
2022/07/18 02:39:30;;;;;;;10.05;7.22;;;;;;;;;;4977815;28;20494;-74
2022/07/18 02:41:57;;;;;;;7.93;7.03;;;;;;;;;;4976099;28;20126;-75
2022/07/18 02:44:23;;;;;;;7.70;6.90;;;;;;;;;;4985050;28;20035;-74
2022/07/18 02:46:49;;;;;;;8.50;7.05;;;;;;;;;;4975974;28;20039;-74
2022/07/18 02:49:27;;;;;;;7.68;6.88;;;;;;;;;;4980502;28;20054;-74
2022/07/18 02:51:54;;;;;;;8.65;6.82;;;;;;;;;;4973119;28;20129;-74
2022/07/18 02:54:20;;;;;;;8.35;7.28;;;;;;;;;;4982587;28;20096;-74
2022/07/18 02:56:46;;;;;;;8.45;7.25;;;;;;;;;;4982678;28;20520;-74
2022/07/18 02:59:12;;;;;;;8.23;7.30;;;;;;;;;;4985546;28;20042;-74
2022/07/18 03:01:38;;;;;;;8.30;7.50;;;;;;;;;;4982832;28;20046;-74
2022/07/18 03:04:04;;;;;;;7.50;6.70;;;;;;;;;;4989442;28;20049;-74
2022/07/18 03:06:30;;;;;;;8.77;7.13;;;;;;;;;;4987368;28;20193;-74
2022/07/18 03:08:57;;;;;;;10.57;6.60;;;;;;;;;;4985504;28;20042;-75
2022/07/18 03:11:22;;;;;;;8.18;6.57;;;;;;;;;;4986802;28;20042;-74
2022/07/18 03:13:49;;;;;;;7.25;6.55;;;;;;;;;;4982292;28;20042;-74
2022/07/18 03:16:15;;;;;;;7.57;6.70;;;;;;;;;;5001583;28;20442;-74
2022/07/18 03:18:40;;;;;;;9.70;7.55;;;;;;;;;;4981849;28;20054;-74
2022/07/18 03:21:06;;;;;;;9.77;6.82;;;;;;;;;;4980048;28;20050;-74
2022/07/18 03:23:32;;;;;;;7.65;6.78;;;;;;;;;;4984025;28;20486;-75
2022/07/18 03:25:58;;;;;;;10.07;7.65;;;;;;;;;;4987176;28;20074;-74
2022/07/18 03:28:24;;;;;;;7.60;6.03;;;;;;;;;;4984102;28;20478;-74
2022/07/18 03:30:50;;;;;;;7.70;6.80;;;;;;;;;;4987561;28;20104;-74
2022/07/18 03:33:17;;;;;;;9.30;6.85;;;;;;;;;;4982469;28;20044;-74
2022/07/18 03:35:43;;;;;;;8.23;6.57;;;;;;;;;;4988592;28;20130;-74
2022/07/18 03:38:09;;;;;;;8.70;6.63;;;;;;;;;;4984990;28;20165;-74
2022/07/18 03:40:35;;;;;;;8.15;6.75;;;;;;;;;;4988473;28;20134;-75
2022/07/18 03:43:01;;;;;;;8.75;6.72;;;;;;;;;;4986610;28;20043;-74
2022/07/18 03:45:27;;;;;;;7.43;6.45;;;;;;;;;;4981940;28;20919;-74
2022/07/18 03:47:53;;;;;;;8.98;7.03;;;;;;;;;;4986167;28;20209;-74
2022/07/18 03:50:19;;;;;;;9.45;6.50;;;;;;;;;;4983709;28;20103;-74
2022/07/18 03:52:45;;;;;;;6.90;6.22;;;;;;;;;;4983824;28;20510;-74
2022/07/18 03:55:11;;;;;;;10.57;7.55;;;;;;;;;;4988488;28;20500;-74
2022/07/18 03:57:37;;;;;;;8.20;6.57;;;;;;;;;;4982907;28;20034;-74
2022/07/18 04:00:04;;;;;;;7.75;6.93;;;;;;;;;;4997225;28;20054;-74
2022/07/18 04:02:30;;;;;;;10.52;6.95;;;;;;;;;;4987602;28;20080;-74
2022/07/18 04:04:56;;;;;;;8.20;6.25;;;;;;;;;;4984505;28;20046;-74
2022/07/18 04:07:22;;;;;;;8.45;6.53;;;;;;;;;;4980945;28;20054;-74
2022/07/18 04:09:48;;;;;;;7.55;6.45;;;;;;;;;;4989708;28;20129;-74
2022/07/18 04:12:14;;;;;;;7.90;6.47;;;;;;;;;;4987487;28;20371;-74
2022/07/18 04:14:40;;;;;;;9.48;7.22;;;;;;;;;;4983397;28;20038;-74
2022/07/18 04:17:06;;;;;;;8.45;6.35;;;;;;;;;;4988857;28;20464;-74
2022/07/18 04:19:34;;;;;;;7.47;6.47;;;;;;;;;;4981856;28;20046;-74
2022/07/18 04:22:00;;;;;;;7.70;6.65;;;;;;;;;;4984908;28;20035;-74
2022/07/18 04:24:26;;;;;;;7.45;6.47;;;;;;;;;;4981281;28;20411;-74
2022/07/18 04:26:52;;;;;;;8.40;6.30;;;;;;;;;;4978423;28;20073;-74
2022/07/18 04:29:18;;;;;;;6.90;6.20;;;;;;;;;;4983378;28;20046;-74
2022/07/18 04:31:44;;;;;;;8.52;6.75;;;;;;;;;;4983995;28;20061;-74
2022/07/18 04:34:10;;;;;;;7.75;6.60;;;;;;;;;;4981525;28;20050;-74
2022/07/18 04:36:36;;;;;;;7.97;5.97;;;;;;;;;;4984351;28;20043;-74
2022/07/18 04:39:02;;;;;;;7.68;6.35;;;;;;;;;;4980709;28;20053;-74
2022/07/18 04:41:28;;;;;;;9.77;6.47;;;;;;;;;;4982436;28;20061;-74
2022/07/18 04:43:54;;;;;;;8.70;6.53;;;;;;;;;;4977382;28;20047;-74
2022/07/18 04:46:20;;;;;;;7.85;6.88;;;;;;;;;;4976762;28;20053;-74
2022/07/18 04:48:46;;;;;;;9.65;6.68;;;;;;;;;;4981171;28;20394;-74
2022/07/18 04:51:12;;;;;;;8.13;6.68;;;;;;;;;;4983373;28;20088;-75
2022/07/18 04:53:38;;;;;;;9.30;6.35;;;;;;;;;;4985372;28;20047;-74
2022/07/18 04:56:05;;;;;;;9.63;6.10;;;;;;;;;;4984220;28;20452;-74
2022/07/18 04:58:31;;;;;;;9.10;6.75;;;;;;;;;;4983730;28;20046;-74
2022/07/18 05:00:57;;;;;;;7.38;6.50;;;;;;;;;;4985374;28;20050;-74
2022/07/18 05:03:23;;;;;;;9.43;6.35;;;;;;;;;;4980903;28;21189;-74
2022/07/18 05:05:49;;;;;;;7.90;6.60;;;;;;;;;;4980810;28;20038;-74
2022/07/18 05:08:15;;;;;;;9.07;6.63;;;;;;;;;;4987803;28;20508;-74
2022/07/18 05:10:41;;;;;;;10.63;6.53;;;;;;;;;;4981953;28;20079;-74
2022/07/18 05:13:07;;;;;;;7.70;6.10;;;;;;;;;;4980328;28;20557;-74
2022/07/18 05:15:33;;;;;;;7.53;6.60;;;;;;;;;;4978005;28;20047;-74
2022/07/18 05:17:59;;;;;;;10.68;5.78;;;;;;;;;;4987953;28;20050;-74
2022/07/18 05:20:26;;;;;;;7.63;6.30;;;;;;;;;;4999281;28;20109;-74
2022/07/18 05:22:53;;;;;;;6.68;5.97;;;;;;;;;;4981722;28;20046;-74
2022/07/18 05:25:19;;;;;;;8.38;6.28;;;;;;;;;;4985660;28;20042;-74
2022/07/18 05:27:45;;;;;;;7.47;6.18;;;;;;;;;;4984241;28;20053;-74
2022/07/18 05:30:13;;;;;;;7.85;6.35;;;;;;;;;;4979176;28;20082;-74
2022/07/18 05:32:39;;;;;;;8.70;6.38;;;;;;;;;;4980969;28;20042;-74
2022/07/18 05:35:06;;;;;;;8.73;6.50;;;;;;;;;;4982820;28;20049;-74
2022/07/18 05:37:35;;;;;;;7.15;6.25;;;;;;;;;;4984211;28;20504;-74
2022/07/18 05:40:01;;;;;;;6.70;5.63;;;;;;;;;;4986584;28;20138;-74
2022/07/18 05:42:27;;;;;;;7.85;6.13;;;;;;;;;;5001952;28;20173;-74
2022/07/18 05:44:53;;;;;;;6.10;5.50;;;;;;;;;;4978709;28;20074;-75
2022/07/18 05:47:19;;;;;;;7.35;6.05;;;;;;;;;;4985147;28;20045;-74
2022/07/18 05:49:45;;;;;;;6.85;6.00;;;;;;;;;;4986641;28;20039;-74
2022/07/18 05:52:11;;;;;;;7.18;6.07;;;;;;;;;;4983225;28;20050;-74
2022/07/18 05:54:37;;;;;;;7.63;6.20;;;;;;;;;;4991536;28;20093;-74
2022/07/18 05:57:03;;;;;;;6.97;5.70;;;;;;;;;;4999401;28;20038;-74
2022/07/18 05:59:29;;;;;;;7.53;6.22;;;;;;;;;;4988689;28;20042;-74
2022/07/18 06:01:55;;;;;;;7.50;6.40;;;;;;;;;;4986791;28;20046;-74
2022/07/18 06:04:21;;;;;;;10.20;6.22;;;;;;;;;;4977398;28;20051;-74
2022/07/18 06:06:49;;;;;;;6.88;5.75;;;;;;;;;;4995634;28;20046;-74
2022/07/18 06:09:16;;;;;;;6.97;5.50;;;;;;;;;;4985253;28;20390;-74
2022/07/18 06:11:42;;;;;;;8.63;6.00;;;;;;;;;;4978903;28;20050;-74
2022/07/18 06:14:08;;;;;;;7.80;6.22;;;;;;;;;;4983215;28;20184;-74
2022/07/18 06:16:34;;;;;;;6.68;5.80;;;;;;;;;;4982483;28;20049;-74
2022/07/18 06:19:00;;;;;;;6.50;5.78;;;;;;;;;;4984195;28;20082;-74
2022/07/18 06:21:26;;;;;;;8.27;6.13;;;;;;;;;;4979683;28;20089;-74
2022/07/18 06:23:53;;;;;;;8.65;6.10;;;;;;;;;;4985313;28;20050;-74
2022/07/18 06:26:19;;;;;;;7.45;5.80;;;;;;;;;;4984090;28;20038;-74
2022/07/18 06:28:45;;;;;;;9.02;5.65;;;;;;;;;;4984033;28;20073;-73
2022/07/18 06:31:11;;;;;;;8.88;6.40;;;;;;;;;;4990596;28;20105;-74
2022/07/18 06:33:37;;;;;;;10.63;6.20;;;;;;;;;;4992309;28;20047;-73
2022/07/18 06:36:05;;;;;;;6.43;5.50;;;;;;;;;;4978533;28;20050;-74
2022/07/18 06:38:31;;;;;;;7.45;5.72;;;;;;;;;;4995024;28;20054;-74
2022/07/18 06:40:57;;;;;;;10.68;5.57;;;;;;;;;;4983420;28;20046;-73
2022/07/18 06:43:23;;;;;;;8.05;5.78;;;;;;;;;;4994101;28;20051;-74
2022/07/18 06:45:52;;;;;;;6.95;5.45;;;;;;;;;;4996358;28;20042;-74
2022/07/18 06:48:18;;;;;;;6.40;5.20;;;;;;;;;;4992448;28;20064;-74
2022/07/18 06:50:44;;;;;;;6.35;5.30;;;;;;;;;;4984407;28;20475;-74
2022/07/18 06:53:10;;;;;;;10.30;5.20;;;;;;;;;;5021284;28;20049;-74
2022/07/18 06:55:37;;;;;;;6.75;5.30;;;;;;;;;;4981430;28;20046;-74
2022/07/18 06:58:03;;;;;;;5.95;4.82;;;;;;;;;;4977264;28;20129;-74
2022/07/18 07:00:29;;;;;;;7.68;5.07;;;;;;;;;;4985391;28;20046;-74
2022/07/18 07:02:55;;;;;;;7.32;5.10;;;;;;;;;;4982266;28;20073;-74
2022/07/18 07:05:21;;;;;;;6.00;4.50;;;;;;;;;;4977894;28;20403;-74
2022/07/18 07:07:48;;;;;;;6.28;4.80;;;;;;;;;;4984715;28;20039;-74
2022/07/18 07:10:14;;;;;;;5.68;4.60;;;;;;;;;;4995878;28;20479;-74
2022/07/18 07:12:41;;;;;;;5.85;4.50;;;;;;;;;;4982252;28;20387;-74
2022/07/18 07:15:08;;;;;;;5.43;4.55;;;;;;;;;;4989760;28;20060;-74
2022/07/18 07:17:37;;;;;;;7.28;4.35;;;;;;;;;;4976792;28;20051;-74
2022/07/18 07:20:07;;;;;;;5.25;4.07;;;;;;;;;;4980635;28;20047;-74
2022/07/18 07:22:41;;;;;;;5.00;4.32;;;;;;;;;;4984726;28;20054;-74
2022/07/18 07:25:07;;;;;;;5.25;4.10;;;;;;;;;;4983244;28;20498;-74
2022/07/18 07:27:33;;;;;;;4.93;4.10;;;;;;;;;;4979754;28;20043;-74
2022/07/18 07:29:59;;;;;;;6.40;4.22;;;;;;;;;;4980728;28;20042;-74
2022/07/18 07:32:25;;;;;;;5.05;4.35;;;;;;;;;;4999216;28;20061;-75
2022/07/18 07:34:51;;;;;;;5.00;4.45;;;;;;;;;;4985292;28;20061;-74
2022/07/18 07:37:17;;;;;;;6.22;3.72;;;;;;;;;;4978882;28;20047;-75
2022/07/18 07:39:44;;;;;;;5.25;3.80;;;;;;;;;;4984692;28;20039;-74
2022/07/18 07:42:10;;;;;;;6.40;4.22;;;;;;;;;;4986862;28;20054;-74
2022/07/18 07:44:36;;;;;;;5.22;3.55;;;;;;;;;;4987890;28;20037;-74
2022/07/18 07:47:02;;;;;;;4.60;3.50;;;;;;;;;;5002777;28;20054;-71
2022/07/18 07:49:28;;;;;;;5.95;3.40;;;;;;;;;;4986477;28;20049;-74
2022/07/18 07:51:54;;;;;;;3.95;3.50;;;;;;;;;;4980508;28;20042;-74
2022/07/18 07:54:24;;;;;;;6.88;3.10;;;;;;;;;;4983732;28;20053;-74
2022/07/18 07:56:50;;;;;;;7.57;3.20;;;;;;;;;;4980937;28;20133;-74
2022/07/18 07:59:16;;;;;;;4.38;3.17;;;;;;;;;;4985958;28;20046;-75
2022/07/18 08:01:42;;;;;;;4.40;3.30;;;;;;;;;;4983000;28;20064;-74
2022/07/18 08:04:08;;;;;;;6.85;3.28;;;;;;;;;;4987756;28;20066;-75
2022/07/18 08:06:34;;;;;;;4.65;3.10;;;;;;;;;;4999203;28;20053;-74
2022/07/18 08:09:00;;;;;;;4.93;3.30;;;;;;;;;;5003880;28;20047;-74
2022/07/18 08:11:26;;;;;;;6.30;3.38;;;;;;;;;;5003516;28;20120;-74
2022/07/18 08:13:53;;;;;;;7.00;3.42;;;;;;;;;;4981443;28;20058;-74
2022/07/18 08:16:19;;;;;;;4.45;3.08;;;;;;;;;;4976018;28;20483;-74
2022/07/18 08:18:46;;;;;;;4.35;2.80;;;;;;;;;;4975343;28;20046;-74
2022/07/18 08:21:12;;;;;;;7.50;3.28;;;;;;;;;;4981473;28;20057;-75
2022/07/18 08:23:38;;;;;;;4.75;3.20;;;;;;;;;;4994929;28;20490;-74
2022/07/18 08:26:04;;;;;;;5.45;2.75;;;;;;;;;;5002037;28;20073;-75
2022/07/18 08:28:30;;;;;;;3.20;2.90;;;;;;;;;;4983315;28;20046;-74
2022/07/18 08:30:56;;;;;;;3.05;2.70;;;;;;;;;;4974793;28;20050;-75
2022/07/18 08:33:22;;;;;;;6.50;2.88;;;;;;;;;;4980598;28;20046;-75
2022/07/18 08:35:49;;;;;;;4.50;2.80;;;;;;;;;;4980425;28;20038;-75
2022/07/18 08:38:15;;;;;;;7.72;3.10;;;;;;;;;;4995780;28;20137;-75
2022/07/18 08:40:41;;;;;;;4.47;2.60;;;;;;;;;;4981351;28;20057;-75
2022/07/18 08:43:07;;;;;;;3.25;2.80;;;;;;;;;;4983493;28;20042;-75
2022/07/18 08:45:33;;;;;;;4.45;2.90;;;;;;;;;;4975298;28;20402;-75
2022/07/18 08:47:59;;;;;;;3.97;2.55;;;;;;;;;;4979649;28;20043;-75
2022/07/18 08:50:26;;;;;;;3.90;2.58;;;;;;;;;;4980466;28;20043;-75
2022/07/18 08:52:52;;;;;;;4.07;2.58;;;;;;;;;;4979908;28;20053;-74
2022/07/18 08:55:18;;;;;;;5.60;2.63;;;;;;;;;;4997535;28;20483;-75
2022/07/18 08:57:44;;;;;;;3.88;2.78;;;;;;;;;;4984356;28;20042;-75
2022/07/18 09:00:11;;;;;;;3.33;2.60;;;;;;;;;;4997695;28;20058;-75
2022/07/18 09:02:37;;;;;;;4.80;2.85;;;;;;;;;;4977290;28;20042;-75
2022/07/18 09:05:04;;;;;;;5.57;2.60;;;;;;;;;;4973613;28;20038;-75
2022/07/18 09:07:31;;;;;;;2.95;2.30;;;;;;;;;;4976714;28;20053;-75
2022/07/18 09:09:58;;;;;;;4.20;2.30;;;;;;;;;;4974634;28;20142;-75
2022/07/18 09:12:25;;;;;;;3.15;2.22;;;;;;;;;;4976717;28;20046;-75
2022/07/18 09:14:51;;;;;;;4.10;2.40;;;;;;;;;;4983323;28;20730;-75
2022/07/18 09:17:26;;;;;;;6.20;2.80;;;;;;;;;;4990803;28;20039;-75
2022/07/18 09:20:00;;;;;;;4.65;2.40;;;;;;;;;;4987292;28;20053;-75
2022/07/18 09:22:28;;;;;;;4.90;2.70;;;;;;;;;;4979314;28;20074;-75
2022/07/18 09:24:55;;;;;;;6.18;2.40;;;;;;;;;;4980641;28;20047;-74
2022/07/18 09:27:30;;;;;;;5.40;2.70;;;;;;;;;;4991985;28;20428;-74
2022/07/18 09:30:15;;;;;;;4.15;2.40;;;;;;;;;;4983993;28;20487;-75
2022/07/18 09:32:45;;;;;;;3.85;2.40;;;;;;;;;;4983218;28;20054;-75
2022/07/18 09:35:15;;;;;;;4.57;2.50;;;;;;;;;;4975856;28;20059;-75
2022/07/18 09:37:52;;;;;;;4.20;2.47;;;;;;;;;;4975055;28;20694;-74
2022/07/18 09:40:23;;;;;;;4.60;2.53;;;;;;;;;;4980312;28;20118;-75
2022/07/18 09:42:51;;;;;;;2.95;2.65;;;;;;;;;;4980743;28;20130;-75
2022/07/18 09:45:21;;;;;;;5.05;2.60;;;;;;;;;;4981074;28;20046;-75
2022/07/18 09:47:51;;;;;;;4.70;2.58;;;;;;;;;;4987859;28;20108;-74
2022/07/18 09:50:30;;;;;;;6.30;3.20;;;;;;;;;;4978433;28;20049;-75
2022/07/18 09:53:05;;;;;;;8.82;4.75;;;;;;;;;;4989449;28;20078;-75
2022/07/18 09:55:32;;;;;;;5.50;3.40;;;;;;;;;;4980885;28;20097;-75
2022/07/18 09:58:01;;;;;;;3.20;2.60;;;;;;;;;;4976141;28;20396;-75
2022/07/18 10:00:29;;;;;;;4.13;2.90;;;;;;;;;;4977814;28;20070;-75
2022/07/18 10:02:55;;;;;;;6.00;2.90;;;;;;;;;;4977962;28;20054;-75
2022/07/18 10:05:21;;;;;;;3.88;2.70;;;;;;;;;;4984439;28;20486;-75
2022/07/18 10:07:47;;;;;;;5.07;2.70;;;;;;;;;;4994354;28;20041;-75
2022/07/18 10:10:17;;;;;;;3.67;2.50;;;;;;;;;;4976436;28;20101;-76
2022/07/18 10:12:43;;;;;;;5.32;2.53;;;;;;;;;;4981129;28;20038;-75
2022/07/18 10:15:10;;;;;;;4.60;2.95;;;;;;;;;;4980774;28;20053;-75
2022/07/18 10:17:36;;;;;;;3.75;2.45;;;;;;;;;;4980982;28;20046;-75
2022/07/18 10:20:06;;;;;;;4.22;2.60;;;;;;;;;;4983131;28;20050;-75
2022/07/18 10:22:36;;;;;;;4.40;3.00;;;;;;;;;;4983812;28;20038;-75
2022/07/18 10:25:04;;;;;;;3.50;2.70;;;;;;;;;;4983572;28;20082;-75
2022/07/18 10:27:48;;;;;;;6.07;2.80;;;;;;;;;;4976063;28;20053;-75
2022/07/18 10:30:14;;;;;;;3.38;2.90;;;;;;;;;;4979144;28;20054;-75
2022/07/18 10:32:41;;;;;;;6.70;4.90;;;;;;;;;;4978789;28;20169;-75
2022/07/18 10:35:07;;;;;;;7.90;6.47;;;;;;;;;;4984439;28;20521;-75
2022/07/18 10:37:33;;;;;;;3.78;2.95;;;;;;;;;;5001736;28;20043;-75
2022/07/18 10:40:20;;;;;;;4.65;2.70;;;;;;;;;;4986895;28;20047;-74
2022/07/18 10:42:46;;;;;;;5.28;2.65;;;;;;;;;;4976509;28;20042;-75
2022/07/18 10:45:43;;;;;;;6.28;3.13;;;;;;;;;;4983599;28;20110;-76
2022/07/18 10:48:38;;;;;;;3.05;2.45;;;;;;;;;;4975846;28;20057;-75
2022/07/18 10:51:07;;;;;;;3.95;2.72;;;;;;;;;;4978172;28;20113;-75
2022/07/18 10:53:52;;;;;;;6.50;2.72;;;;;;;;;;4981785;28;20038;-75
2022/07/18 10:56:18;;;;;;;4.43;2.80;;;;;;;;;;4976515;28;20502;-75
2022/07/18 10:58:44;;;;;;;6.45;3.35;;;;;;;;;;4992669;28;20039;-75
2022/07/18 11:01:17;;;;;;;5.88;2.78;;;;;;;;;;4977649;28;20093;-75
2022/07/18 11:03:43;;;;;;;7.38;2.95;;;;;;;;;;4973486;28;20050;-75
2022/07/18 11:06:09;;;;;;;4.45;2.92;;;;;;;;;;4977071;28;20046;-75
2022/07/18 11:08:35;;;;;;;5.97;2.65;;;;;;;;;;4972728;28;20403;-75
2022/07/18 11:11:05;;;;;;;5.28;2.63;;;;;;;;;;4990080;28;20054;-75
2022/07/18 11:13:35;;;;;;;6.18;2.65;;;;;;;;;;4988390;28;20057;-75
2022/07/18 11:16:08;;;;;;;6.03;2.50;;;;;;;;;;4986642;28;20076;-75
2022/07/18 11:18:43;;;;;;;5.22;2.70;;;;;;;;;;4991495;28;20050;-75
2022/07/18 11:21:28;;;;;;;7.72;5.50;;;;;;;;;;4991558;28;20449;-75
2022/07/18 11:23:59;;;;;;;9.43;6.10;;;;;;;;;;4992146;28;20046;-75
2022/07/18 11:26:25;;;;;;;6.32;3.17;;;;;;;;;;4991039;28;20500;-75
2022/07/18 11:29:02;;;;;;;5.75;2.80;;;;;;;;;;4989489;28;20054;-75
2022/07/18 11:31:29;;;;;;;4.75;2.40;;;;;;;;;;4986596;28;20054;-75
2022/07/18 11:33:56;;;;;;;8.30;2.80;;;;;;;;;;4977712;28;20352;-76
2022/07/18 11:36:23;;;;;;;4.05;2.60;;;;;;;;;;4982247;28;20049;-76
2022/07/18 11:38:50;;;;;;;4.50;3.20;;;;;;;;;;4988608;28;20125;-76
2022/07/18 11:41:16;;;;;;;4.60;2.97;;;;;;;;;;4999653;28;20047;-76
2022/07/18 11:43:46;;;;;;;6.47;2.75;;;;;;;;;;5000425;28;20104;-76
2022/07/18 11:46:13;;;;;;;6.43;3.08;;;;;;;;;;4983480;28;20405;-76
2022/07/18 11:48:40;;;;;;;4.40;2.92;;;;;;;;;;4984064;28;20043;-76
2022/07/18 11:51:09;;;;;;;5.35;3.25;;;;;;;;;;4985463;28;20046;-76
2022/07/18 11:53:35;;;;;;;8.07;2.88;;;;;;;;;;4979363;28;20056;-76
2022/07/18 11:56:05;;;;;;;3.38;2.80;;;;;;;;;;4981898;28;20046;-76
2022/07/18 11:58:36;;;;;;;4.93;2.97;;;;;;;;;;4994078;28;20058;-76
2022/07/18 12:01:02;;;;;;;3.72;2.72;;;;;;;;;;4984037;28;20401;-76
2022/07/18 12:03:28;;;;;;;7.88;3.10;;;;;;;;;;4982732;28;20046;-76
2022/07/18 12:05:54;;;;;;;3.80;2.72;;;;;;;;;;4989175;28;20053;-76
2022/07/18 12:08:34;;;;;;;3.65;2.97;;;;;;;;;;5003609;28;20053;-77
2022/07/18 12:11:22;;;;;;;4.97;3.22;;;;;;;;;;4987879;28;20097;-77
2022/07/18 12:13:51;;;;;;;5.57;3.35;;;;;;;;;;4999354;28;20387;-76
2022/07/18 12:16:24;;;;;;;5.57;2.70;;;;;;;;;;4984676;28;20046;-76
2022/07/18 12:18:51;;;;;;;3.28;2.75;;;;;;;;;;4982658;28;20380;-75
2022/07/18 12:21:17;;;;;;;6.28;3.08;;;;;;;;;;4983476;28;20047;-76
2022/07/18 12:23:43;;;;;;;3.95;2.88;;;;;;;;;;4990405;28;20493;-76
2022/07/18 12:26:09;;;;;;;4.15;2.67;;;;;;;;;;4988799;28;20521;-76
2022/07/18 12:28:35;;;;;;;4.45;2.60;;;;;;;;;;4975398;28;20805;-77
2022/07/18 12:31:01;;;;;;;5.95;3.05;;;;;;;;;;4979389;28;20059;-77
2022/07/18 12:33:27;;;;;;;4.63;2.70;;;;;;;;;;4987787;28;20093;-77
2022/07/18 12:35:57;;;;;;;6.55;3.03;;;;;;;;;;4986065;28;20473;-79
2022/07/18 12:38:23;;;;;;;4.63;2.70;;;;;;;;;;4983023;28;20050;-76
2022/07/18 12:40:56;;;;;;;6.53;2.78;;;;;;;;;;4984732;28;20497;-76
2022/07/18 12:43:27;;;;;;;7.28;3.67;;;;;;;;;;4988950;28;20137;-76
2022/07/18 12:45:54;;;;;;;7.82;4.82;;;;;;;;;;4984514;28;20561;-76
2022/07/18 12:48:20;;;;;;;7.82;3.25;;;;;;;;;;4985446;28;20581;-76
2022/07/18 12:50:46;;;;;;;9.20;3.47;;;;;;;;;;4990998;28;20487;-76
2022/07/18 12:53:13;;;;;;;5.28;3.10;;;;;;;;;;4998054;28;20050;-76
2022/07/18 12:55:40;;;;;;;8.07;3.55;;;;;;;;;;4989371;28;20089;-76
2022/07/18 12:58:06;;;;;;;3.58;3.00;;;;;;;;;;4985438;28;20054;-77
2022/07/18 13:00:32;;;;;;;4.95;2.90;;;;;;;;;;4992239;28;20437;-77
2022/07/18 13:02:59;;;;;;;6.40;3.47;;;;;;;;;;4993241;28;20046;-76
2022/07/18 13:05:29;;;;;;;6.32;3.10;;;;;;;;;;4981358;28;20048;-76
2022/07/18 13:07:55;;;;;;;5.80;3.30;;;;;;;;;;4983519;28;21019;-77
2022/07/18 13:10:21;;;;;;;4.70;2.50;;;;;;;;;;4982866;28;20050;-77
2022/07/18 13:12:47;;;;;;;3.95;2.83;;;;;;;;;;4983349;28;20068;-76
2022/07/18 13:15:13;;;;;;;6.00;2.63;;;;;;;;;;4997767;28;20108;-76
2022/07/18 13:17:39;;;;;;;7.70;3.28;;;;;;;;;;4988125;28;20039;-77
2022/07/18 13:20:06;;;;;;;6.82;3.15;;;;;;;;;;4982668;28;20113;-77
2022/07/18 13:22:37;;;;;;;4.60;3.10;;;;;;;;;;4986520;28;20042;-76
2022/07/18 13:25:07;;;;;;;7.22;3.47;;;;;;;;;;4982733;28;20141;-76
2022/07/18 13:27:33;;;;;;;5.40;3.03;;;;;;;;;;4979634;28;20038;-76
2022/07/18 13:30:00;;;;;;;4.65;2.55;;;;;;;;;;4986696;28;20097;-77
2022/07/18 13:32:26;;;;;;;4.00;2.30;;;;;;;;;;4984974;28;20046;-77
2022/07/18 13:34:52;;;;;;;3.20;2.50;;;;;;;;;;4981279;28;20049;-77
2022/07/18 13:37:18;;;;;;;4.60;2.60;;;;;;;;;;4976570;28;20039;-77
2022/07/18 13:39:44;;;;;;;5.05;2.50;;;;;;;;;;4985338;28;20136;-77
2022/07/18 13:42:10;;;;;;;2.83;2.50;;;;;;;;;;5001464;28;20505;-77
2022/07/18 13:44:36;;;;;;;3.75;2.40;;;;;;;;;;4986944;28;20054;-77
2022/07/18 13:47:02;;;;;;;6.35;2.60;;;;;;;;;;4987761;28;20049;-77
2022/07/18 13:49:28;;;;;;;7.55;3.00;;;;;;;;;;4984118;28;20561;-76
2022/07/18 13:51:54;;;;;;;3.90;2.42;;;;;;;;;;4986566;28;20099;-76
2022/07/18 13:54:20;;;;;;;4.63;2.50;;;;;;;;;;5003278;28;20056;-76
2022/07/18 13:56:46;;;;;;;5.45;2.50;;;;;;;;;;4984473;28;20073;-77
2022/07/18 13:59:12;;;;;;;4.25;2.42;;;;;;;;;;4998094;28;20050;-77
2022/07/18 14:01:39;;;;;;;4.40;2.53;;;;;;;;;;4984650;28;20059;-76
2022/07/18 14:04:05;;;;;;;5.60;2.80;;;;;;;;;;4998359;28;20064;-77
2022/07/18 14:06:31;;;;;;;6.40;2.83;;;;;;;;;;4973074;28;20568;-77
2022/07/18 14:08:57;;;;;;;4.55;2.20;;;;;;;;;;4985725;28;20038;-77
2022/07/18 14:11:23;;;;;;;4.32;2.42;;;;;;;;;;4988063;28;20133;-77
2022/07/18 14:13:49;;;;;;;5.57;2.60;;;;;;;;;;4986118;28;20038;-76
2022/07/18 14:16:15;;;;;;;5.32;2.88;;;;;;;;;;4982390;28;20047;-77
2022/07/18 14:18:41;;;;;;;8.20;3.90;;;;;;;;;;4979108;28;21669;-76
2022/07/18 14:21:07;;;;;;;5.07;3.28;;;;;;;;;;4998332;28;20046;-75
2022/07/18 14:23:33;;;;;;;4.75;3.10;;;;;;;;;;4981842;28;20376;-76
2022/07/18 14:25:59;;;;;;;5.72;3.10;;;;;;;;;;4988327;28;20053;-78
2022/07/18 14:28:25;;;;;;;5.53;2.70;;;;;;;;;;4989896;28;20047;-75
2022/07/18 14:30:51;;;;;;;7.13;3.03;;;;;;;;;;4984998;28;20498;-77
2022/07/18 14:33:17;;;;;;;7.40;3.90;;;;;;;;;;4989241;28;20085;-75
2022/07/18 14:35:43;;;;;;;3.80;3.40;;;;;;;;;;4981249;28;20073;-75
2022/07/18 14:38:09;;;;;;;6.93;3.45;;;;;;;;;;4982010;28;20129;-75
2022/07/18 14:40:35;;;;;;;5.63;3.40;;;;;;;;;;4982651;28;20088;-75
2022/07/18 14:43:01;;;;;;;7.43;3.72;;;;;;;;;;4980218;28;20050;-76